Time;durP1;ratioP1;P1;durP2;ratioP2;P2;SDS_P1;SDS_P2;PMS_P1;PMS_P2;Temp;Humidity;BMP_temperature;BMP_pressure;BME280_temperature;BME280_humidity;BME280_pressure;Samples;Min_cycle;Max_cycle;Signal;HPM_P1;HPM_P2
2022/06/20 00:00:24;;;;;;;5.97;2.75;;;;;;;22.47;46.12;99532.00;4500379;31;34801;-84
2022/06/20 00:02:54;;;;;;;6.20;2.70;;;;;;;22.43;46.24;99528.13;4486998;31;33065;-83
2022/06/20 00:05:25;;;;;;;4.70;2.50;;;;;;;22.44;46.41;99524.19;4500023;31;31620;-83
2022/06/20 00:07:54;;;;;;;6.78;2.67;;;;;;;22.43;46.50;99522.53;4500047;31;33849;-82
2022/06/20 00:10:23;;;;;;;5.30;2.60;;;;;;;22.46;46.54;99515.53;4486613;31;35293;-84
2022/06/20 00:12:52;;;;;;;4.85;2.78;;;;;;;22.37;46.94;99523.69;4486903;31;33619;-83
2022/06/20 00:15:32;;;;;;;5.28;2.60;;;;;;;22.37;47.07;99518.09;4500040;31;34047;-82
2022/06/20 00:18:05;;;;;;;6.82;2.90;;;;;;;22.34;47.18;99516.72;4486196;31;34489;-82
2022/06/20 00:20:39;;;;;;;4.90;2.65;;;;;;;22.27;47.25;99507.81;4499721;31;35137;-82
2022/06/20 00:23:10;;;;;;;5.45;2.62;;;;;;;22.24;47.33;99507.56;4473796;31;33044;-83
2022/06/20 00:25:41;;;;;;;6.62;3.17;;;;;;;22.22;47.21;99495.84;4487103;31;32702;-82
2022/06/20 00:28:11;;;;;;;6.35;2.85;;;;;;;22.23;47.17;99508.69;4499661;31;34975;-82
2022/06/20 00:30:39;;;;;;;7.32;2.55;;;;;;;22.17;47.41;99498.66;4499590;31;34397;-83
2022/06/20 00:33:10;;;;;;;5.35;2.60;;;;;;;22.09;47.67;99504.91;4473764;31;33498;-82
2022/06/20 00:35:41;;;;;;;8.98;2.60;;;;;;;22.01;48.01;99504.38;4487026;31;32763;-82
2022/06/20 00:38:27;;;;;;;5.12;3.00;;;;;;;22.06;47.95;99506.31;4488799;31;34612;-83
2022/06/20 00:41:00;;;;;;;6.87;3.05;;;;;;;21.95;48.05;99505.50;4499491;31;35077;-82
2022/06/20 00:43:45;;;;;;;6.45;2.95;;;;;;;21.97;47.94;99494.03;4499410;31;34019;-82
2022/06/20 00:46:44;;;;;;;6.95;3.00;;;;;;;21.92;48.08;99494.91;4499692;31;35237;-82
2022/06/20 00:49:41;;;;;;;7.65;2.70;;;;;;;21.93;48.06;99493.78;4488541;31;35560;-83
2022/06/20 00:52:30;;;;;;;;;;;;;;;21.93;48.17;99493.78;4499885;31;35273;-83
2022/06/20 00:55:36;;;;;;;4.78;2.80;;;;;;;21.81;48.57;99492.44;4500267;31;35142;-82
2022/06/20 00:58:36;;;;;;;6.53;3.08;;;;;;;21.77;48.61;99475.44;4501611;31;34986;-83
2022/06/20 01:01:30;;;;;;;5.78;3.10;;;;;;;21.74;48.69;99473.19;4501400;31;34675;-84
2022/06/20 01:04:39;;;;;;;8.57;3.42;;;;;;;21.66;48.68;99471.84;4490882;31;35248;-82
2022/06/20 01:07:37;;;;;;;5.62;3.00;;;;;;;21.66;48.56;99474.63;4501688;31;34856;-82
2022/06/20 01:10:26;;;;;;;5.95;2.85;;;;;;;21.75;48.26;99463.69;4501387;31;34958;-83
2022/06/20 01:13:16;;;;;;;4.65;2.70;;;;;;;21.72;48.27;99467.06;4490482;31;34631;-83
2022/06/20 01:16:13;;;;;;;4.90;2.90;;;;;;;21.61;48.54;99471.88;4499523;31;36297;-82
2022/06/20 01:19:03;;;;;;;4.65;2.60;;;;;;;21.58;48.59;99466.03;4499338;31;34445;-82
2022/06/20 01:21:52;;;;;;;6.53;2.70;;;;;;;21.52;48.70;99464.38;4488201;31;34149;-81
2022/06/20 01:24:51;;;;;;;9.23;2.85;;;;;;;21.51;48.68;99451.53;4488298;31;34810;-81
2022/06/20 01:27:39;;;;;;;5.00;2.65;;;;;;;;;;4488473;31;35056;-81
2022/06/20 01:30:30;;;;;;;9.57;2.90;;;;;;;21.44;49.06;99445.44;4500747;31;34731;-82
2022/06/20 01:33:19;;;;;;;7.05;2.87;;;;;;;21.42;49.17;99444.91;4491453;31;35220;-82
2022/06/20 01:39:16;;;;;;;4.25;2.50;;;;;;;21.37;49.15;99432.62;4502796;31;35306;-83
2022/06/20 01:42:19;;;;;;;4.43;2.70;;;;;;;21.39;49.07;99440.72;4490467;31;34827;-82
2022/06/20 01:45:57;;;;;;;6.68;2.55;;;;;;;21.35;49.08;99445.22;4492280;31;35076;-82
2022/06/20 01:48:20;;;;;;;7.15;2.90;;;;;;;21.30;49.13;99437.69;4501498;31;34715;-84
2022/06/20 01:51:31;;;;;;;4.68;2.50;;;;;;;21.14;49.46;99433.25;4501340;31;36328;-82
2022/06/20 01:54:19;;;;;;;6.05;2.70;;;;;;;21.28;49.07;99431.56;4501318;31;35527;-82
2022/06/20 01:57:07;;;;;;;6.30;2.58;;;;;;;21.12;49.71;99445.81;4490402;31;34088;-82
2022/06/20 02:00:00;;;;;;;5.97;3.08;;;;;;;21.27;49.37;99437.41;4501304;31;34608;-83
2022/06/20 02:02:57;;;;;;;7.93;3.10;;;;;;;21.18;49.85;99433.50;4490346;31;36351;-84
2022/06/20 02:05:46;;;;;;;4.60;2.70;;;;;;;21.23;49.76;99422.37;4501302;31;34602;-82
2022/06/20 02:08:35;;;;;;;7.35;3.20;;;;;;;21.21;49.75;99422.66;4490191;31;34320;-82
2022/06/20 02:11:32;;;;;;;7.35;2.80;;;;;;;21.05;50.26;99415.41;4489516;31;35583;-83
2022/06/20 02:14:20;;;;;;;5.12;2.95;;;;;;;21.08;50.11;99414.00;4502117;31;36379;-83
2022/06/20 02:17:29;;;;;;;6.28;2.85;;;;;;;21.08;50.14;99403.69;4490385;31;34903;-82
2022/06/20 02:20:24;;;;;;;6.43;3.33;;;;;;;21.04;50.29;99405.38;4490260;31;34169;-82
2022/06/20 02:23:10;;;;;;;8.05;3.08;;;;;;;21.02;50.34;99407.63;4489936;31;35621;-83
2022/06/20 02:25:59;;;;;;;12.68;3.00;;;;;;;21.01;50.29;99401.19;4490203;31;36260;-82
2022/06/20 02:29:23;;;;;;;5.15;2.50;;;;;;;20.90;50.65;99402.34;4501091;31;34793;-83
2022/06/20 02:32:17;;;;;;;4.43;2.47;;;;;;;20.93;50.63;99399.00;4498516;31;34027;-82
2022/06/20 02:35:07;;;;;;;5.82;3.17;;;;;;;20.91;50.75;99394.81;4490049;31;34735;-82
2022/06/20 02:37:53;;;;;;;5.50;2.90;;;;;;;20.88;50.99;99395.38;4490004;31;36257;-83
2022/06/20 02:40:42;;;;;;;6.80;3.12;;;;;;;20.93;50.83;99387.00;4489985;31;34723;-83
2022/06/20 02:43:39;;;;;;;5.03;2.72;;;;;;;20.87;50.97;99388.12;4490179;31;34989;-83
2022/06/20 02:46:27;;;;;;;6.68;3.10;;;;;;;20.82;51.18;99383.41;4489987;31;34621;-82
2022/06/20 02:49:18;;;;;;;9.35;3.00;;;;;;;20.78;51.36;99395.44;4490105;31;35337;-82
2022/06/20 02:52:06;;;;;;;6.40;3.03;;;;;;;20.65;51.84;99394.91;4489986;31;34835;-83
2022/06/20 02:54:53;;;;;;;5.85;2.72;;;;;;;20.71;51.80;99392.94;4500930;31;35052;-83
2022/06/20 02:57:48;;;;;;;4.40;2.70;;;;;;;20.68;51.90;99397.13;4500815;31;34676;-83
2022/06/20 03:00:37;;;;;;;6.22;3.10;;;;;;;20.66;51.85;99391.00;4500821;31;35329;-82
2022/06/20 03:03:31;;;;;;;6.60;3.00;;;;;;;20.70;51.70;99397.69;4489783;31;35462;-83
2022/06/20 03:06:29;;;;;;;7.05;3.42;;;;;;;20.76;51.36;99389.31;4489897;31;34110;-83
2022/06/20 03:09:18;;;;;;;6.90;3.30;;;;;;;20.67;51.77;99389.88;4489749;31;35459;-82
2022/06/20 03:12:08;;;;;;;6.55;2.80;;;;;;;20.62;51.98;99386.28;4500549;31;35276;-82
2022/06/20 03:14:56;;;;;;;7.85;3.58;;;;;;;20.63;52.05;99380.41;4500839;31;34474;-83
2022/06/20 03:17:45;;;;;;;6.55;2.92;;;;;;;20.69;51.80;99384.88;4489704;31;34325;-82
2022/06/20 03:20:38;;;;;;;9.27;3.30;;;;;;;20.58;52.29;99386.00;4499950;31;34670;-83
2022/06/20 03:23:27;;;;;;;6.70;2.97;;;;;;;20.55;52.45;99375.41;4489603;31;35005;-83
2022/06/20 03:26:20;;;;;;;7.70;2.95;;;;;;;20.38;53.02;99386.03;4489734;31;34815;-83
2022/06/20 03:29:10;;;;;;;6.80;3.20;;;;;;;20.36;53.25;99383.50;4500555;31;34120;-85
2022/06/20 03:34:44;;;;;;;5.57;2.85;;;;;;;20.57;52.92;99386.28;4501490;31;35390;-84
2022/06/20 03:37:31;;;;;;;9.60;3.92;;;;;;;20.59;53.04;99381.25;4489222;31;34748;-83
2022/06/20 03:40:17;;;;;;;6.18;3.15;;;;;;;20.67;52.78;99372.31;4489614;31;34057;-84
2022/06/20 03:43:06;;;;;;;7.95;3.62;;;;;;;20.68;52.87;99374.81;4500472;31;34619;-83
2022/06/20 03:45:57;;;;;;;8.20;3.65;;;;;;;20.70;53.00;99374.53;4489277;31;36426;-84
2022/06/20 03:49:02;;;;;;;5.20;3.00;;;;;;;20.70;53.25;99380.12;4489475;31;35671;-84
2022/06/20 03:51:55;;;;;;;6.85;3.25;;;;;;;20.81;53.26;99373.38;4489483;31;34184;-85
2022/06/20 03:54:52;;;;;;;6.45;3.50;;;;;;;20.78;53.46;99376.75;4489473;31;35263;-84
2022/06/20 03:57:47;;;;;;;9.73;4.20;;;;;;;20.86;53.27;99380.88;4500446;31;35395;-84
2022/06/20 04:00:39;;;;;;;7.85;4.12;;;;;;;20.95;53.25;99381.97;4500248;31;34861;-83
2022/06/20 04:03:33;;;;;;;6.15;3.78;;;;;;;20.95;53.57;99382.81;4489320;31;35032;-84
2022/06/20 04:06:31;;;;;;;6.07;3.20;;;;;;;20.91;54.17;99372.50;4500317;31;34620;-85
2022/06/20 04:12:55;;;;;;;9.57;4.10;;;;;;;21.02;54.02;99383.34;4501152;31;35714;-84
2022/06/20 04:16:17;;;;;;;8.73;3.53;;;;;;;21.06;54.01;99383.59;4489135;31;35104;-83
2022/06/20 04:19:36;;;;;;;6.40;3.58;;;;;;;21.27;53.25;99388.00;4482444;31;34605;-84
2022/06/20 04:22:27;;;;;;;7.57;3.90;;;;;;;21.16;53.33;99385.53;4488901;31;36398;-84
2022/06/20 04:25:25;;;;;;;6.28;3.45;;;;;;;21.14;53.71;99383.00;4499926;31;35697;-84
2022/06/20 04:28:20;;;;;;;8.05;4.07;;;;;;;21.24;53.59;99382.16;4489071;31;34344;-84
2022/06/20 04:31:17;;;;;;;7.07;3.97;;;;;;;21.37;53.12;99376.81;4499972;31;34773;-83
2022/06/20 04:34:17;;;;;;;7.50;4.25;;;;;;;21.40;53.08;99375.37;4501866;31;35271;-85
2022/06/20 04:37:28;;;;;;;6.65;4.18;;;;;;;21.53;53.03;99371.09;4502910;31;35698;-84
2022/06/20 04:40:26;;;;;;;7.68;4.57;;;;;;;21.53;53.59;99379.47;4490895;31;34154;-84
2022/06/20 04:43:18;;;;;;;7.12;4.07;;;;;;;21.66;53.70;99378.84;4490700;31;34538;-83
2022/06/20 04:46:18;;;;;;;9.98;4.05;;;;;;;21.70;53.86;99368.75;4501784;31;35228;-83
2022/06/20 04:49:04;;;;;;;8.90;4.12;;;;;;;21.79;54.08;99377.34;4490616;31;34900;-83
2022/06/20 04:51:51;;;;;;;12.40;4.25;;;;;;;21.87;54.25;99373.94;4490906;31;35056;-84
2022/06/20 04:54:38;;;;;;;11.63;4.22;;;;;;;22.02;53.89;99374.69;4490844;31;34599;-83
2022/06/20 04:57:26;;;;;;;9.60;4.10;;;;;;;22.20;53.23;99377.88;4490601;31;35314;-83
2022/06/20 05:00:22;;;;;;;6.78;4.18;;;;;;;22.15;53.41;99369.53;4490671;31;34815;-84
2022/06/20 05:03:11;;;;;;;11.02;4.50;;;;;;;22.23;53.51;99377.28;4490723;31;34191;-83
2022/06/20 05:05:59;;;;;;;8.25;4.25;;;;;;;22.40;52.70;99371.28;4490629;31;34590;-84
2022/06/20 05:08:51;;;;;;;10.07;4.10;;;;;;;22.38;52.74;99371.56;4501641;31;36273;-84
2022/06/20 05:11:43;;;;;;;11.50;4.05;;;;;;;22.59;52.50;99372.19;4490518;31;34890;-83
2022/06/20 05:14:41;;;;;;;8.63;4.50;;;;;;;22.72;52.29;99373.47;4501645;31;34119;-83
2022/06/20 05:17:29;;;;;;;7.45;4.10;;;;;;;22.84;52.33;99373.91;4501529;31;34661;-83
2022/06/20 05:20:23;;;;;;;9.60;4.55;;;;;;;22.78;52.87;99378.69;4490155;31;36329;-83
2022/06/20 05:23:32;;;;;;;10.57;4.97;;;;;;;22.97;52.81;99379.62;4478748;31;35653;-83
2022/06/20 05:26:24;;;;;;;9.85;5.22;;;;;;;23.03;52.34;99380.41;4488340;31;34176;-83
2022/06/20 05:29:19;;;;;;;7.55;4.55;;;;;;;23.14;52.50;99383.91;4500982;31;35560;-83
2022/06/20 05:32:14;;;;;;;7.00;4.65;;;;;;;23.24;53.07;99379.00;4492020;31;36367;-85
2022/06/20 05:35:24;;;;;;;9.63;4.37;;;;;;;23.42;52.27;99382.94;4501286;31;34754;-82
2022/06/20 05:37:59;;;;;;;10.15;5.20;;;;;;;23.54;52.30;99382.53;4487230;31;31784;-83
2022/06/20 05:40:36;;;;;;;7.95;5.18;;;;;;;23.63;51.35;99389.97;4500607;31;33462;-82
2022/06/20 05:43:22;;;;;;;7.95;3.92;;;;;;;23.76;50.62;99388.38;4474999;31;32990;-82
2022/06/20 05:46:01;;;;;;;7.43;3.90;;;;;;;23.93;50.23;99388.69;4489608;31;33712;-84
2022/06/20 05:48:36;;;;;;;7.72;4.25;;;;;;;23.98;50.29;99383.00;4475383;31;33331;-82
2022/06/20 05:51:07;;;;;;;9.93;4.05;;;;;;;24.05;50.27;99376.97;4473289;31;32278;-81
2022/06/20 05:53:40;;;;;;;8.55;4.15;;;;;;;24.14;50.13;99377.09;4474958;31;33973;-82
2022/06/20 05:56:19;;;;;;;8.90;4.40;;;;;;;24.21;49.50;99377.56;4487971;31;33252;-82
2022/06/20 05:58:51;;;;;;;6.68;3.95;;;;;;;24.39;49.18;99379.53;4475138;31;32743;-81
2022/06/20 06:01:25;;;;;;;6.87;3.40;;;;;;;24.44;48.96;99387.00;4474873;31;33570;-82
2022/06/20 06:04:04;;;;;;;9.57;3.77;;;;;;;24.48;47.98;99391.69;4488325;31;35293;-80
2022/06/20 06:06:52;;;;;;;6.35;3.87;;;;;;;24.63;48.28;99393.41;4487074;31;34123;-81
2022/06/20 06:09:37;;;;;;;9.00;3.92;;;;;;;24.68;47.58;99395.28;4474931;31;33314;-82
2022/06/20 06:12:08;;;;;;;8.30;3.47;;;;;;;24.65;47.10;99387.47;4487436;31;33917;-78
2022/06/20 06:14:49;;;;;;;6.35;3.53;;;;;;;24.86;46.91;99385.94;4487106;31;34285;-82
2022/06/20 06:17:28;;;;;;;11.23;3.78;;;;;;;25.02;45.27;99383.69;4461319;31;32329;-81
2022/06/20 06:20:17;;;;;;;8.02;3.40;;;;;;;25.17;45.21;99378.59;4464804;31;32856;-81
2022/06/20 06:22:48;;;;;;;9.13;3.72;;;;;;;25.29;44.56;99375.25;4487837;31;34124;-81
2022/06/20 06:25:38;;;;;;;5.95;3.72;;;;;;;25.38;44.06;99373.34;4487789;31;34393;-81
2022/06/20 06:28:18;;;;;;;11.32;3.50;;;;;;;25.48;44.06;99372.28;4460271;31;33273;-78
2022/06/20 06:30:55;;;;;;;6.45;3.37;;;;;;;25.64;44.40;99375.59;4473362;31;32809;-78
2022/06/20 06:33:37;;;;;;;6.03;3.17;;;;;;;25.73;44.38;99371.75;4461829;31;33156;-79
2022/06/20 06:36:17;;;;;;;5.87;3.20;;;;;;;25.81;44.78;99375.78;4486808;31;34133;-78
2022/06/20 06:38:58;;;;;;;5.30;3.78;;;;;;;25.95;44.45;99367.31;4472492;31;32413;-77
2022/06/20 06:41:35;;;;;;;6.78;2.92;;;;;;;25.92;43.65;99375.22;4485914;31;33979;-77
2022/06/20 06:44:12;;;;;;;6.25;3.20;;;;;;;26.10;42.65;99375.34;4471997;31;33732;-78
2022/06/20 06:46:42;;;;;;;7.03;3.05;;;;;;;26.18;41.68;99371.75;4472381;31;34569;-78
2022/06/20 06:49:18;;;;;;;5.72;3.20;;;;;;;26.30;40.78;99366.38;4473502;31;33954;-78
2022/06/20 06:51:58;;;;;;;6.45;3.47;;;;;;;26.43;41.54;99371.16;4487458;31;33300;-78
2022/06/20 06:54:28;;;;;;;6.05;3.17;;;;;;;26.32;40.41;99378.19;4473496;31;32195;-78
2022/06/20 06:57:03;;;;;;;6.18;3.65;;;;;;;26.48;41.34;99379.44;4486028;31;35240;-78
2022/06/20 07:00:14;;;;;;;5.77;3.20;;;;;;;26.71;39.67;99368.13;4477588;31;34767;-79
2022/06/20 07:02:47;;;;;;;9.35;3.53;;;;;;;26.77;39.59;99359.22;4487640;31;32892;-78
2022/06/20 07:05:32;;;;;;;5.75;3.67;;;;;;;26.79;39.94;99356.91;4473701;31;34477;-79
2022/06/20 07:08:13;;;;;;;7.43;3.37;;;;;;;26.89;40.18;99351.00;4473951;31;32844;-79
2022/06/20 07:10:47;;;;;;;6.65;4.00;;;;;;;26.77;40.51;99359.22;4474161;31;32362;-81
2022/06/20 07:13:37;;;;;;;5.62;3.60;;;;;;;26.95;39.93;99354.50;4474381;31;31682;-74
2022/06/20 07:16:16;;;;;;;6.32;3.42;;;;;;;27.09;39.56;99341.16;4474221;31;32043;-81
2022/06/20 07:18:49;;;;;;;8.05;3.55;;;;;;;27.13;39.66;99330.06;4461366;31;33890;-81
2022/06/20 07:21:18;;;;;;;6.97;3.40;;;;;;;26.93;41.18;99337.09;4487407;31;33912;-81
2022/06/20 07:23:58;;;;;;;7.25;3.97;;;;;;;27.19;40.68;99332.41;4487422;31;34520;-81
2022/06/20 07:26:35;;;;;;;10.63;3.62;;;;;;;27.38;40.47;99332.09;4474505;31;33751;-81
2022/06/20 07:29:15;;;;;;;8.35;3.65;;;;;;;27.54;40.00;99335.25;4474771;31;35108;-80
2022/06/20 07:31:49;;;;;;;9.82;3.90;;;;;;;27.46;38.88;99333.25;4473876;31;32499;-81
2022/06/20 07:34:33;;;;;;;11.63;4.35;;;;;;;27.48;39.92;99328.97;4487455;31;33208;-81
2022/06/20 07:37:12;;;;;;;10.90;4.35;;;;;;;27.67;40.61;99330.66;4474488;31;33977;-81
2022/06/20 07:39:46;;;;;;;9.68;4.10;;;;;;;27.56;39.78;99330.13;4487672;31;34379;-81
2022/06/20 07:42:30;;;;;;;9.13;4.22;;;;;;;27.77;39.21;99314.25;4487213;31;32387;-81
2022/06/20 07:45:01;;;;;;;12.77;4.20;;;;;;;27.87;39.97;99319.56;4473941;31;31923;-83
2022/06/20 07:47:40;;;;;;;7.30;3.85;;;;;;;27.80;40.07;99312.75;4474082;31;32193;-82
2022/06/20 07:50:15;;;;;;;10.00;4.35;;;;;;;27.72;40.42;99305.13;4474302;31;34079;-81
2022/06/20 07:52:48;;;;;;;8.00;3.97;;;;;;;27.82;41.13;99311.25;4474400;31;34017;-80
2022/06/20 07:55:19;;;;;;;10.45;4.50;;;;;;;28.03;40.30;99305.75;4487143;31;33288;-81
2022/06/20 07:57:53;;;;;;;8.65;4.40;;;;;;;28.11;41.16;99312.53;4474105;31;33696;-82
2022/06/20 08:00:27;;;;;;;9.13;4.45;;;;;;;28.18;38.45;99313.69;4474370;31;32967;-82
2022/06/20 08:03:04;;;;;;;8.68;4.22;;;;;;;28.42;37.64;99318.81;4474237;31;34645;-82
2022/06/20 08:05:38;;;;;;;7.85;4.50;;;;;;;28.61;38.13;99303.47;4486733;31;33950;-81
2022/06/20 08:08:18;;;;;;;8.98;4.50;;;;;;;28.43;39.47;99314.00;4486971;31;33852;-82
2022/06/20 08:10:51;;;;;;;10.48;4.40;;;;;;;28.68;38.59;99306.59;4486474;31;33817;-82
2022/06/20 08:13:43;;;;;;;10.30;3.80;;;;;;;28.76;38.54;99300.06;4486674;31;32488;-81
2022/06/20 08:16:17;;;;;;;10.57;4.97;;;;;;;28.65;37.44;99305.28;4486854;31;33349;-82
2022/06/20 08:18:45;;;;;;;10.65;4.72;;;;;;;28.99;38.55;99297.84;4474032;31;33884;-81
2022/06/20 08:21:20;;;;;;;8.13;3.85;;;;;;;29.08;38.47;99296.62;4486439;31;34672;-80
2022/06/20 08:24:02;;;;;;;10.93;4.47;;;;;;;29.32;37.77;99292.31;4486668;31;34713;-82
2022/06/20 08:26:35;;;;;;;10.15;4.10;;;;;;;29.23;37.05;99286.72;4473827;31;32727;-82
2022/06/20 08:29:07;;;;;;;9.48;4.40;;;;;;;29.43;36.85;99294.41;4486871;31;34744;-82
2022/06/20 08:31:54;;;;;;;5.72;3.92;;;;;;;29.40;36.90;99285.75;4473747;31;35131;-81
2022/06/20 08:34:29;;;;;;;9.82;4.35;;;;;;;29.48;35.45;99282.06;4473575;31;33365;-83
2022/06/20 08:37:27;;;;;;;6.72;4.00;;;;;;;29.78;35.57;99280.84;4486612;31;33105;-83
2022/06/20 08:40:31;;;;;;;10.65;4.87;;;;;;;29.97;35.38;99283.13;4474571;31;33655;-82
2022/06/20 08:43:21;;;;;;;8.75;4.15;;;;;;;30.09;36.18;99280.38;4473588;31;34415;-82
2022/06/20 08:46:08;;;;;;;8.77;4.32;;;;;;;30.01;36.44;99286.13;4472103;31;32171;-82
2022/06/20 08:49:13;;;;;;;7.40;4.32;;;;;;;30.03;34.80;99280.94;4486335;31;34062;-81
2022/06/20 08:52:06;;;;;;;7.25;4.28;;;;;;;30.29;35.28;99283.50;4486511;31;33665;-81
2022/06/20 08:54:40;;;;;;;13.85;4.50;;;;;;;30.30;35.14;99273.84;4473173;31;33891;-81
2022/06/20 08:57:46;;;;;;;9.43;4.25;;;;;;;30.52;34.80;99275.41;4473194;31;32524;-82
2022/06/20 09:00:45;;;;;;;7.75;4.75;;;;;;;30.61;34.24;99268.47;4475177;31;31840;-82
2022/06/20 09:03:29;;;;;;;8.80;4.30;;;;;;;30.77;35.02;99271.44;4486263;31;33853;-82
2022/06/20 09:06:29;;;;;;;8.10;4.20;;;;;;;30.97;33.88;99262.00;4460713;31;33699;-82
2022/06/20 09:09:43;;;;;;;8.90;4.35;;;;;;;31.15;32.82;99267.47;4486006;31;34016;-83
2022/06/20 09:12:26;;;;;;;9.32;4.37;;;;;;;31.05;33.89;99252.53;4485901;31;34095;-82
2022/06/20 09:15:21;;;;;;;7.55;4.68;;;;;;;31.29;33.03;99250.88;4486064;31;34405;-83
2022/06/20 09:18:00;;;;;;;7.82;4.10;;;;;;;31.44;33.42;99244.44;4473941;31;33805;-82
2022/06/20 09:20:37;;;;;;;8.25;4.32;;;;;;;31.65;31.28;99235.75;4488373;31;34221;-81
2022/06/20 09:23:30;;;;;;;7.90;4.22;;;;;;;31.86;31.60;99230.72;4475479;31;33262;-81
2022/06/20 09:26:03;;;;;;;5.55;3.70;;;;;;;32.15;30.65;99228.69;4475023;31;32236;-82
2022/06/20 09:28:44;;;;;;;6.55;3.78;;;;;;;32.05;31.08;99219.50;4475404;31;34118;-83
2022/06/20 09:31:30;;;;;;;9.40;5.07;;;;;;;32.30;31.08;99214.53;4488080;31;33127;-81
2022/06/20 09:34:28;;;;;;;6.40;3.85;;;;;;;32.44;30.72;99210.41;4488357;31;33342;-83
2022/06/20 09:37:22;;;;;;;5.90;4.07;;;;;;;32.21;31.43;99205.31;4475838;31;34478;-83
2022/06/20 09:40:17;;;;;;;8.82;4.07;;;;;;;32.45;31.40;99198.69;4475153;31;32959;-82
2022/06/20 09:42:58;;;;;;;7.95;4.22;;;;;;;32.71;29.17;99195.25;4488186;31;34016;-83
2022/06/20 09:45:41;;;;;;;7.07;3.65;;;;;;;32.80;28.26;99195.91;4488077;31;32836;-83
2022/06/20 09:48:18;;;;;;;8.10;3.75;;;;;;;33.08;28.77;99209.16;4488374;31;34080;-82
2022/06/20 09:51:12;;;;;;;6.62;3.53;;;;;;;33.26;28.20;99193.31;4488132;31;35074;-82
2022/06/20 09:54:11;;;;;;;6.65;3.45;;;;;;;33.44;26.87;99203.09;4460455;31;32564;-81
2022/06/20 09:57:01;;;;;;;4.53;3.20;;;;;;;33.45;26.83;99195.38;4474756;31;31568;-82
2022/06/20 09:59:42;;;;;;;7.68;3.47;;;;;;;33.78;27.38;99187.16;4479165;31;33847;-81
2022/06/20 10:08:57;;;;;;;7.55;3.65;;;;;;;34.10;27.63;99176.38;4489163;31;33471;-81
2022/06/20 10:11:31;;;;;;;8.23;4.47;;;;;;;34.42;27.03;99179.84;4488744;31;34396;-83
2022/06/20 10:14:08;;;;;;;5.20;3.50;;;;;;;34.42;27.43;99171.28;4473714;31;34252;-82
2022/06/20 10:17:07;;;;;;;6.50;3.47;;;;;;;34.52;27.30;99155.56;4486523;31;33873;-81
2022/06/20 10:20:06;;;;;;;8.32;3.62;;;;;;;34.84;26.52;99164.66;4475458;31;32737;-79
2022/06/20 10:22:54;;;;;;;8.13;3.47;;;;;;;34.83;26.97;99165.84;4501271;31;34387;-82
2022/06/20 10:25:47;;;;;;;5.20;3.40;;;;;;;34.93;26.12;99156.66;4474445;31;32975;-80
2022/06/20 10:28:46;;;;;;;7.97;3.50;;;;;;;35.27;26.08;99154.66;4441649;26;33210;-74
2022/06/20 10:31:29;;;;;;;5.97;3.33;;;;;;;35.40;24.68;99164.66;4392393;32;31613;-73
2022/06/20 10:34:10;;;;;;;5.07;3.10;;;;;;;35.47;23.92;99159.03;4407898;32;33852;-73
2022/06/20 10:36:45;;;;;;;8.02;3.40;;;;;;;35.71;23.83;99145.47;4406719;32;34587;-73
2022/06/20 10:39:43;;;;;;;8.73;3.33;;;;;;;35.88;23.98;99150.53;4407971;32;33705;-73
2022/06/20 10:42:30;;;;;;;6.55;3.28;;;;;;;36.00;21.99;99146.59;4406854;32;33165;-73
2022/06/20 10:45:25;;;;;;;5.45;3.10;;;;;;;36.02;22.50;99145.00;4392693;32;32864;-73
2022/06/20 10:48:15;;;;;;;5.03;2.92;;;;;;;36.10;22.27;99137.31;4405288;32;33965;-73
2022/06/20 10:51:07;;;;;;;8.25;3.30;;;;;;;36.35;22.25;99138.41;4405490;32;34195;-73
2022/06/20 10:53:51;;;;;;;4.72;2.95;;;;;;;36.53;21.50;99136.47;4378414;32;32688;-73
2022/06/20 10:56:36;;;;;;;6.40;3.08;;;;;;;36.55;21.43;99138.94;4383844;32;33000;-73
2022/06/20 10:59:57;;;;;;;6.53;3.35;;;;;;;36.53;21.65;99145.06;4383225;32;35239;-72
2022/06/20 11:03:02;;;;;;;6.25;2.70;;;;;;;36.49;21.39;99132.78;4391143;32;33808;-74
2022/06/20 11:05:50;;;;;;;3.90;2.70;;;;;;;36.86;20.37;99134.72;4387224;32;31834;-73
2022/06/20 11:08:43;;;;;;;6.95;2.65;;;;;;;37.24;20.09;99127.59;4386486;32;33760;-73
2022/06/20 11:11:39;;;;;;;5.10;2.80;;;;;;;37.37;19.38;99131.72;4401620;32;34125;-73
2022/06/20 11:14:28;;;;;;;6.97;2.95;;;;;;;37.58;18.61;99117.50;4411621;32;34691;-74
2022/06/20 11:17:22;;;;;;;10.07;3.25;;;;;;;37.28;19.06;99119.00;4402660;32;31552;-73
2022/06/20 11:20:05;;;;;;;6.70;3.00;;;;;;;37.32;19.21;99111.25;4424126;32;34567;-74
2022/06/20 11:22:43;;;;;;;5.07;3.47;;;;;;;37.36;19.40;99112.09;4424073;32;34258;-73
2022/06/20 11:25:19;;;;;;;6.10;3.20;;;;;;;37.65;19.41;99102.37;4403579;32;34653;-73
2022/06/20 11:27:53;;;;;;;5.30;2.78;;;;;;;37.79;19.37;99104.47;4423580;32;33845;-73
2022/06/20 11:30:25;;;;;;;6.57;3.40;;;;;;;37.89;19.43;99104.50;4409752;32;32630;-73
2022/06/20 11:34:00;;;;;;;10.07;3.10;;;;;;;38.10;20.02;99120.91;4422619;32;32890;-73
2022/06/20 11:36:17;;;;;;;5.60;2.85;;;;;;;38.36;18.31;99104.53;4377276;32;33840;-73
2022/06/20 11:39:03;;;;;;;5.55;2.65;;;;;;;38.44;18.02;99111.91;4407048;32;33353;-73
2022/06/20 11:41:39;;;;;;;5.80;3.17;;;;;;;38.27;17.85;99112.75;4367904;32;32283;-73
2022/06/20 11:44:30;;;;;;;4.68;2.55;;;;;;;38.41;17.28;99107.00;4406705;32;35317;-73
2022/06/20 11:47:28;;;;;;;7.75;2.78;;;;;;;38.32;18.05;99115.22;4392624;32;33198;-74
2022/06/20 11:49:58;;;;;;;4.25;2.50;;;;;;;38.28;17.57;99114.41;4386978;32;33287;-74
2022/06/20 11:52:48;;;;;;;4.85;2.67;;;;;;;38.14;17.86;99110.28;4391125;32;33489;-74
2022/06/20 11:55:28;;;;;;;4.95;2.72;;;;;;;38.11;18.37;99104.53;4393151;32;34549;-73
2022/06/20 11:58:11;;;;;;;5.05;2.75;;;;;;;38.10;18.11;99108.63;4393199;32;32013;-73
2022/06/20 12:01:00;;;;;;;6.20;2.70;;;;;;;38.28;17.75;99114.41;4404406;32;31649;-73
2022/06/20 12:03:48;;;;;;;8.13;2.80;;;;;;;38.41;17.65;99101.25;4379598;32;34570;-73
2022/06/20 12:06:26;;;;;;;7.43;2.78;;;;;;;38.63;17.77;99091.44;4381290;32;34078;-74
2022/06/20 12:08:59;;;;;;;5.18;2.87;;;;;;;38.56;18.78;99094.28;4393158;32;34590;-74
2022/06/20 12:11:30;;;;;;;5.28;2.50;;;;;;;38.68;18.48;99091.03;4393195;32;32625;-74
2022/06/20 12:14:16;;;;;;;4.43;2.70;;;;;;;38.67;17.37;99088.56;4393225;32;33828;-73
2022/06/20 12:16:55;;;;;;;4.62;2.35;;;;;;;38.91;16.90;99084.00;4405501;32;34263;-73
2022/06/20 12:25:28;;;;;;;5.68;2.33;;;;;;;38.97;16.24;99079.50;4405189;32;33916;-73
2022/06/20 12:27:59;;;;;;;6.87;2.53;;;;;;;38.82;16.73;99068.06;4406219;32;34409;-73
2022/06/20 12:30:26;;;;;;;5.10;2.45;;;;;;;38.77;17.32;99082.00;4392943;32;33713;-74
2022/06/20 12:33:01;;;;;;;6.57;2.33;;;;;;;39.10;16.58;99061.41;4406485;32;33272;-72
2022/06/20 12:35:43;;;;;;;5.50;2.62;;;;;;;38.98;16.61;99072.50;4397993;32;33807;-74
2022/06/20 12:38:37;;;;;;;7.00;3.10;;;;;;;38.93;16.46;99055.72;4378884;32;34222;-74
2022/06/20 12:41:09;;;;;;;3.87;2.30;;;;;;;38.93;17.50;99047.94;4392220;32;32557;-74
2022/06/20 12:44:35;;;;;;;4.28;2.47;;;;;;;38.86;16.95;99054.50;4392667;32;32995;-72
2022/06/20 12:47:26;;;;;;;8.10;2.55;;;;;;;38.67;16.18;99042.69;4374479;32;34157;-73
2022/06/20 12:50:01;;;;;;;5.18;2.60;;;;;;;38.86;16.29;99045.91;4392687;32;33047;-73
2022/06/20 12:52:42;;;;;;;5.03;2.42;;;;;;;38.44;15.89;99051.69;4407428;32;34029;-73
2022/06/20 12:55:58;;;;;;;5.90;2.50;;;;;;;38.52;16.77;99036.94;4387324;32;34035;-74
2022/06/20 12:58:31;;;;;;;;;;;;;;;38.43;18.19;99039.41;4391630;32;34389;-73
2022/06/20 13:01:04;;;;;;;5.37;2.50;;;;;;;38.62;16.51;99048.84;4409455;32;35476;-73
2022/06/20 13:03:38;;;;;;;4.50;2.35;;;;;;;38.42;16.39;99048.41;4383200;32;33881;-74
2022/06/20 13:07:00;;;;;;;5.60;2.70;;;;;;;38.15;16.89;99054.59;4406392;32;34075;-73
2022/06/20 13:09:46;;;;;;;7.40;2.65;;;;;;;38.23;16.92;99041.09;4390419;32;33731;-73
2022/06/20 13:12:38;;;;;;;7.87;2.80;;;;;;;38.16;16.97;99036.19;4409403;32;35046;-74
2022/06/20 13:15:43;;;;;;;5.82;2.70;;;;;;;38.22;17.25;99040.28;4409160;32;34850;-74
2022/06/20 13:18:29;;;;;;;5.47;2.90;;;;;;;37.94;17.56;99037.38;4394619;32;32657;-73
2022/06/20 13:21:03;;;;;;;3.05;2.05;;;;;;;38.05;17.85;99031.66;4407012;32;33792;-72
2022/06/20 13:23:43;;;;;;;5.47;2.67;;;;;;;37.89;17.60;99034.91;4408641;32;35212;-73
2022/06/20 13:26:27;;;;;;;4.95;2.60;;;;;;;37.81;17.33;99033.28;4395456;32;34138;-73